LGTS Airport Information

Runway Information
Runway 10 Length 8005 ft width 164 ft
Elevation 9 ft Threshold 0 ft Heading 104
Runway 28 Length 8005 ft Width 164 ft
Elevation 19 ft Threshold 0 ft Heading 284
Runway 16 Length 7907 ft width 197 ft
Elevation 14 ft Threshold 0 ft Heading 166
Runway 34 Length 7907 ft Width 197 ft
Elevation 22 ft Threshold 0 ft Heading 346
Airport Frequencies
Type A/G Name RDO Frequency 563.7 MHZ
Type APP Name APP Frequency 120.8 MHZ
Type ATIS Name ATIS Frequency 127.55 MHZ
Type CLD Name CLNC DEL Frequency 118.05 MHZ
Type GND Name GND Frequency 121.7 MHZ
Type TWR Name TWR Frequency 118.1 MHZ
Airport Navaids
Type TACAN Name Mikra Frequency 117400 KHZ
Type TACAN Name Mikra Frequency 115300 KHZ
Type VOR-DME Name Mikra Frequency 110800 KHZ
Type NDB Name Thessaloniki Frequency 345 KHZ
Type VOR-DME Name Thessaloniki Frequency 112100 KHZ
Airport Weather Information & NOTAM
ADDS - METARS form results

(0850 UTC 24 April 2018)
 
METAR text: LGTS 240820Z VRB03KT CAVOK 20/11 Q1017 NOSIG
Conditions at: LGTS (THESSALONIKI/MIK, GR) observed 0820 UTC 24 April 2018
Temperature: 20.0°C (68°F)
Dewpoint: 11.0°C (52°F) [RH = 56%]
Pressure (altimeter): 30.03 inches Hg (1017.0 mb)
Winds: variable direction winds at 3 MPH (3 knots; 1.6 m/s)
Visibility: 6 or more miles (10+ km)
Ceiling: ceiling and visibility are OK
Clouds: unknown
Weather: no significant weather observed at this time